Time;durP1;ratioP1;P1;durP2;ratioP2;P2;SDS_P1;SDS_P2;PMS_P1;PMS_P2;Temp;Humidity;BMP_temperature;BMP_pressure;BME280_temperature;BME280_humidity;BME280_pressure;Samples;Min_cycle;Max_cycle;Signal;HPM_P1;HPM_P2
2022/01/31 00:01:07;;;;;;;7.30;4.13;;;-0.80;99.90;;;;;;5093447;28;20123;-73
2022/01/31 00:03:39;;;;;;;9.05;3.70;;;-0.80;99.90;;;;;;5092073;28;20120;-72
2022/01/31 00:06:10;;;;;;;9.27;4.45;;;-0.80;99.90;;;;;;5076234;28;20092;-73
2022/01/31 00:08:43;;;;;;;8.25;3.80;;;-0.80;99.90;;;;;;5075280;28;20078;-72
2022/01/31 00:11:16;;;;;;;12.27;3.72;;;-0.70;99.90;;;;;;5093218;28;20063;-73
2022/01/31 00:13:57;;;;;;;10.07;4.03;;;-0.80;99.90;;;;;;5092896;28;20048;-73
2022/01/31 00:16:32;;;;;;;11.45;3.58;;;-0.80;99.90;;;;;;5075081;28;20067;-73
2022/01/31 00:19:00;;;;;;;15.65;5.60;;;-0.80;99.90;;;;;;5075035;28;20131;-73
2022/01/31 00:21:29;;;;;;;16.25;4.05;;;-0.70;99.90;;;;;;5074872;28;20100;-73
2022/01/31 00:23:56;;;;;;;10.20;3.80;;;-0.70;99.90;;;;;;5091383;28;20090;-73
2022/01/31 00:26:27;;;;;;;14.00;5.50;;;-0.70;99.90;;;;;;5092821;28;20496;-73
2022/01/31 00:28:59;;;;;;;16.63;4.68;;;-0.70;99.90;;;;;;5074713;28;20086;-73
2022/01/31 00:31:32;;;;;;;7.63;3.83;;;-0.70;99.90;;;;;;5074692;28;20383;-73
2022/01/31 00:33:58;;;;;;;8.02;4.35;;;-0.60;99.90;;;;;;5091015;28;20132;-72
2022/01/31 00:36:26;;;;;;;10.73;3.90;;;-0.60;99.90;;;;;;5074895;28;20032;-73
2022/01/31 00:39:00;;;;;;;14.05;5.38;;;-0.60;99.90;;;;;;5059126;28;20040;-72
2022/01/31 00:41:27;;;;;;;18.75;7.43;;;-0.50;99.90;;;;;;5074399;28;20142;-73
2022/01/31 00:44:13;;;;;;;19.45;8.52;;;-0.50;99.90;;;;;;5074169;28;20082;-73
2022/01/31 00:46:55;;;;;;;17.33;9.32;;;-0.60;99.90;;;;;;5075438;28;20070;-73
2022/01/31 00:52:00;;;;;;;15.25;7.57;;;-0.60;99.90;;;;;;5092448;28;20040;-73
2022/01/31 00:54:32;;;;;;;16.90;8.60;;;-0.60;99.90;;;;;;5091033;28;20062;-73
2022/01/31 00:57:04;;;;;;;15.18;6.60;;;-0.60;99.90;;;;;;5075322;28;20055;-72
2022/01/31 00:59:35;;;;;;;12.70;7.03;;;-0.60;99.90;;;;;;5058548;28;20554;-72
2022/01/31 01:02:07;;;;;;;13.90;7.30;;;-0.60;99.90;;;;;;5074171;28;20414;-72
2022/01/31 01:04:34;;;;;;;15.77;7.45;;;-0.60;99.90;;;;;;5073707;28;20090;-73
2022/01/31 01:07:01;;;;;;;13.27;7.05;;;-0.60;99.90;;;;;;5074117;28;20048;-72
2022/01/31 01:09:33;;;;;;;13.43;7.13;;;-0.50;99.90;;;;;;5091041;28;20461;-73
2022/01/31 01:12:07;;;;;;;17.55;8.70;;;-0.50;99.90;;;;;;5073939;28;20093;-73
2022/01/31 01:14:40;;;;;;;15.52;7.78;;;-0.50;99.90;;;;;;5073653;28;20075;-72
2022/01/31 01:17:07;;;;;;;11.75;7.72;;;-0.50;99.90;;;;;;5057322;28;20048;-73
2022/01/31 01:19:39;;;;;;;15.45;7.45;;;-0.40;99.90;;;;;;5090663;28;20032;-74
2022/01/31 01:22:11;;;;;;;15.85;6.82;;;-0.40;99.90;;;;;;5058129;28;20039;-73
2022/01/31 01:24:43;;;;;;;17.60;7.32;;;-0.40;99.90;;;;;;5057855;28;20061;-72
2022/01/31 01:27:19;;;;;;;14.20;7.03;;;-0.30;99.90;;;;;;5073804;28;20050;-73
2022/01/31 01:29:52;;;;;;;19.55;8.00;;;-0.30;99.90;;;;;;5073819;28;20059;-73
2022/01/31 01:32:22;;;;;;;17.55;7.43;;;-0.30;99.90;;;;;;5090331;28;20068;-72
2022/01/31 01:34:59;;;;;;;12.55;7.13;;;-0.20;99.90;;;;;;5057680;28;20089;-73
2022/01/31 01:37:31;;;;;;;13.68;5.82;;;-0.20;99.90;;;;;;5073777;28;20085;-72
2022/01/31 01:40:04;;;;;;;11.38;4.60;;;-0.20;99.90;;;;;;5073741;28;20119;-73
2022/01/31 01:42:36;;;;;;;14.10;4.68;;;-0.20;99.90;;;;;;5074132;28;20044;-72
2022/01/31 01:45:09;;;;;;;8.68;4.18;;;-0.20;99.90;;;;;;5074305;28;20040;-73
2022/01/31 01:47:38;;;;;;;16.40;4.20;;;-0.10;99.90;;;;;;5073637;28;20040;-73
2022/01/31 01:50:10;;;;;;;11.57;3.72;;;-0.10;99.90;;;;;;5057581;28;20047;-73
2022/01/31 01:52:42;;;;;;;8.75;3.45;;;-0.10;99.90;;;;;;5073161;28;20068;-72
2022/01/31 01:55:14;;;;;;;7.82;3.95;;;-0.10;99.90;;;;;;5057816;28;20068;-73
2022/01/31 01:57:46;;;;;;;12.73;3.63;;;-0.10;99.90;;;;;;5090266;28;20590;-73
2022/01/31 02:00:25;;;;;;;6.65;3.30;;;0.00;99.90;;;;;;5072951;28;20119;-73
2022/01/31 02:02:56;;;;;;;6.50;3.20;;;0.00;99.90;;;;;;5094805;28;20514;-73
2022/01/31 02:05:28;;;;;;;10.60;4.00;;;0.00;99.90;;;;;;5061100;28;20396;-72
2022/01/31 02:08:00;;;;;;;9.35;4.15;;;0.00;99.90;;;;;;5076862;28;20040;-73
2022/01/31 02:10:28;;;;;;;16.73;4.65;;;0.10;99.90;;;;;;5094850;28;20097;-72
2022/01/31 02:13:10;;;;;;;17.38;4.07;;;0.20;99.90;;;;;;5076614;28;20117;-72
2022/01/31 02:15:55;;;;;;;15.02;6.03;;;0.20;99.90;;;;;;5079775;28;20177;-73
2022/01/31 02:18:36;;;;;;;12.73;4.10;;;0.30;99.90;;;;;;5078629;28;20044;-73
2022/01/31 02:21:09;;;;;;;17.27;4.20;;;0.40;99.90;;;;;;5092621;28;20040;-73
2022/01/31 02:23:42;;;;;;;13.05;3.80;;;0.50;99.90;;;;;;5076309;28;20260;-73
2022/01/31 02:26:44;;;;;;;10.27;4.47;;;0.50;99.90;;;;;;5081973;28;20048;-73
2022/01/31 02:29:25;;;;;;;17.52;4.00;;;0.60;99.90;;;;;;5077181;28;20040;-73
2022/01/31 02:31:52;;;;;;;13.00;3.92;;;0.60;99.90;;;;;;5077011;28;20422;-73
2022/01/31 02:34:19;;;;;;;19.05;3.97;;;0.70;99.90;;;;;;5076667;28;20135;-73
2022/01/31 02:36:51;;;;;;;12.60;4.55;;;0.70;99.90;;;;;;5061018;28;20563;-73
2022/01/31 02:39:18;;;;;;;14.55;5.88;;;0.80;99.90;;;;;;5076368;28;20073;-73
2022/01/31 02:41:46;;;;;;;12.65;4.00;;;0.80;99.90;;;;;;5076069;28;20068;-72
2022/01/31 02:44:18;;;;;;;10.23;3.88;;;0.80;99.90;;;;;;5093071;28;20040;-73
2022/01/31 02:47:18;;;;;;;15.95;4.45;;;0.80;99.90;;;;;;5063361;28;20044;-73
2022/01/31 02:50:01;;;;;;;10.90;4.57;;;0.90;99.90;;;;;;5076444;28;20044;-74
2022/01/31 02:52:33;;;;;;;11.82;4.10;;;0.90;99.90;;;;;;5060127;28;20448;-73
2022/01/31 02:55:06;;;;;;;11.30;4.03;;;1.00;99.90;;;;;;5076574;28;20093;-73
2022/01/31 02:57:33;;;;;;;14.02;4.30;;;1.00;99.90;;;;;;5076658;28;20059;-73
2022/01/31 03:00:00;;;;;;;11.90;4.35;;;1.00;99.90;;;;;;5094636;28;20068;-73
2022/01/31 03:02:43;;;;;;;14.07;4.22;;;1.00;99.90;;;;;;5062263;28;20056;-73
2022/01/31 03:05:15;;;;;;;13.95;4.68;;;1.00;99.90;;;;;;5076500;28;20580;-72
2022/01/31 03:07:47;;;;;;;12.02;3.97;;;1.00;99.90;;;;;;5060675;28;20036;-73
2022/01/31 03:10:19;;;;;;;10.82;4.15;;;1.00;99.90;;;;;;5076264;28;20040;-72
2022/01/31 03:12:51;;;;;;;15.70;5.68;;;1.10;99.90;;;;;;5074459;28;20040;-72
2022/01/31 03:15:23;;;;;;;13.00;4.28;;;1.10;99.90;;;;;;5076218;28;20036;-73
2022/01/31 03:18:15;;;;;;;11.80;4.72;;;1.10;99.90;;;;;;5094141;28;20055;-72
2022/01/31 03:20:47;;;;;;;13.50;4.75;;;1.20;99.90;;;;;;5076020;28;20586;-73
2022/01/31 03:23:14;;;;;;;15.95;4.50;;;1.30;99.90;;;;;;5075748;28;20524;-73
2022/01/31 03:25:41;;;;;;;14.00;4.00;;;1.30;99.90;;;;;;5075935;28;20048;-73
2022/01/31 03:28:16;;;;;;;15.60;4.88;;;1.30;99.90;;;;;;5094227;28;20109;-73
2022/01/31 03:30:50;;;;;;;10.85;4.32;;;1.30;99.90;;;;;;5094078;28;20174;-72
2022/01/31 03:33:23;;;;;;;8.75;3.80;;;1.40;99.90;;;;;;5075742;28;20072;-73
2022/01/31 03:35:55;;;;;;;18.45;5.45;;;1.30;99.90;;;;;;5075851;28;20406;-73
2022/01/31 03:38:26;;;;;;;16.05;4.78;;;1.30;99.90;;;;;;5059993;28;20044;-72
2022/01/31 03:40:58;;;;;;;14.23;3.97;;;1.30;99.90;;;;;;5075754;28;20059;-72
2022/01/31 03:43:30;;;;;;;11.13;3.92;;;1.30;99.90;;;;;;5075515;28;20123;-72
2022/01/31 03:46:02;;;;;;;6.75;3.67;;;1.30;99.90;;;;;;5075555;28;20051;-72
2022/01/31 03:48:35;;;;;;;9.65;3.97;;;1.20;99.90;;;;;;5075666;28;20040;-72
2022/01/31 03:51:16;;;;;;;12.38;4.00;;;1.20;99.90;;;;;;5075380;28;20067;-73
2022/01/31 03:53:49;;;;;;;9.95;4.03;;;1.20;99.90;;;;;;5075217;28;20036;-73
2022/01/31 03:56:21;;;;;;;7.68;4.63;;;1.20;99.90;;;;;;5059572;28;20139;-72
2022/01/31 03:59:10;;;;;;;12.82;3.63;;;1.20;99.90;;;;;;5075394;28;20040;-72
2022/01/31 04:01:42;;;;;;;13.30;3.92;;;1.20;99.90;;;;;;5075313;28;20064;-72
2022/01/31 04:04:13;;;;;;;6.85;3.40;;;1.20;99.90;;;;;;5093510;28;20048;-72
2022/01/31 04:06:45;;;;;;;13.63;4.43;;;1.20;99.90;;;;;;5076552;28;20052;-73
2022/01/31 04:09:17;;;;;;;11.18;4.00;;;1.30;99.90;;;;;;5076499;28;20052;-73
2022/01/31 04:11:48;;;;;;;10.43;3.88;;;1.30;99.90;;;;;;5076270;28;20044;-73
2022/01/31 04:14:15;;;;;;;14.52;4.15;;;1.30;99.90;;;;;;5093293;28;20121;-73
2022/01/31 04:16:47;;;;;;;15.45;4.57;;;1.30;99.90;;;;;;5086720;28;20047;-72
2022/01/31 04:19:18;;;;;;;9.85;3.60;;;1.30;99.90;;;;;;5089167;28;20663;-73
2022/01/31 04:21:45;;;;;;;10.80;4.07;;;1.30;99.90;;;;;;5090409;28;20432;-72
2022/01/31 04:24:23;;;;;;;9.23;3.78;;;1.30;99.90;;;;;;5092225;28;20044;-73
2022/01/31 04:26:58;;;;;;;13.73;4.88;;;1.40;99.90;;;;;;5092857;28;20441;-72
2022/01/31 04:29:31;;;;;;;11.05;3.90;;;1.30;99.90;;;;;;5072158;28;20051;-73
2022/01/31 04:32:03;;;;;;;12.00;5.03;;;1.30;99.90;;;;;;5071090;28;20052;-72
2022/01/31 04:34:35;;;;;;;11.52;5.22;;;1.30;99.90;;;;;;5098789;28;20055;-73
2022/01/31 04:37:07;;;;;;;10.15;5.57;;;1.30;99.90;;;;;;5104586;28;20403;-72
2022/01/31 04:39:34;;;;;;;8.27;5.03;;;1.30;99.90;;;;;;5092949;28;20051;-73
2022/01/31 04:42:01;;;;;;;8.70;5.00;;;1.30;99.90;;;;;;5097649;28;20059;-73
2022/01/31 04:44:34;;;;;;;15.27;6.47;;;1.30;99.90;;;;;;5090817;28;20051;-73
2022/01/31 04:47:06;;;;;;;16.67;6.50;;;1.30;99.90;;;;;;5092791;28;20043;-72
2022/01/31 04:49:35;;;;;;;12.63;5.93;;;1.40;99.90;;;;;;5090971;28;20071;-73
2022/01/31 04:52:03;;;;;;;11.65;5.40;;;1.40;99.90;;;;;;5090956;28;20059;-72
2022/01/31 04:54:34;;;;;;;9.75;5.03;;;1.30;99.90;;;;;;5074410;28;20060;-72
2022/01/31 04:57:01;;;;;;;11.98;5.55;;;1.40;99.90;;;;;;5091815;28;20046;-74
2022/01/31 04:59:29;;;;;;;13.45;5.25;;;1.40;99.90;;;;;;5092076;28;20547;-72
2022/01/31 05:02:00;;;;;;;12.15;5.15;;;1.40;99.90;;;;;;5074916;28;20044;-72
2022/01/31 05:04:32;;;;;;;11.77;5.78;;;1.40;99.90;;;;;;5074288;28;20048;-73
2022/01/31 05:06:59;;;;;;;13.27;6.88;;;1.40;99.90;;;;;;5091815;28;20052;-73
2022/01/31 05:09:26;;;;;;;14.20;5.88;;;1.50;99.90;;;;;;5090314;28;20052;-73
2022/01/31 05:11:52;;;;;;;8.15;5.30;;;1.50;99.90;;;;;;5089930;28;20060;-72
2022/01/31 05:14:24;;;;;;;11.52;5.22;;;1.60;99.90;;;;;;5090836;28;20052;-73
2022/01/31 05:16:51;;;;;;;12.68;6.68;;;1.60;99.90;;;;;;5090868;28;20055;-74
2022/01/31 05:19:24;;;;;;;10.70;5.43;;;1.60;99.90;;;;;;5074299;28;20404;-73
2022/01/31 05:21:56;;;;;;;9.48;5.35;;;1.60;99.90;;;;;;5076332;28;20051;-73
2022/01/31 05:24:28;;;;;;;10.35;6.05;;;1.60;99.90;;;;;;5073699;28;20052;-72
2022/01/31 05:27:00;;;;;;;10.32;5.07;;;1.60;99.90;;;;;;5073677;28;20047;-73
2022/01/31 05:29:31;;;;;;;8.98;5.20;;;1.60;99.90;;;;;;5090849;28;20052;-72
2022/01/31 05:31:58;;;;;;;11.27;5.15;;;1.50;99.90;;;;;;5090924;28;20043;-73
2022/01/31 05:34:25;;;;;;;11.43;5.15;;;1.60;99.90;;;;;;5091073;28;20495;-73
2022/01/31 05:36:56;;;;;;;9.85;5.85;;;1.60;99.90;;;;;;5082739;28;20052;-73
2022/01/31 05:39:28;;;;;;;9.90;5.72;;;1.60;99.90;;;;;;5070787;28;20411;-73
2022/01/31 05:42:00;;;;;;;9.32;5.22;;;1.70;99.90;;;;;;5075525;28;20297;-72
2022/01/31 05:44:32;;;;;;;13.32;5.35;;;1.70;99.90;;;;;;5090998;28;20055;-73
2022/01/31 05:47:00;;;;;;;6.57;4.20;;;1.70;99.90;;;;;;5091027;28;20067;-73
2022/01/31 05:49:32;;;;;;;9.55;4.20;;;1.70;99.90;;;;;;5090704;28;20043;-73
2022/01/31 05:52:06;;;;;;;7.05;4.95;;;1.70;99.90;;;;;;5090790;28;20467;-72
2022/01/31 05:54:39;;;;;;;10.95;5.53;;;1.80;99.90;;;;;;5104064;28;20460;-73
2022/01/31 05:57:11;;;;;;;11.10;5.35;;;1.80;99.90;;;;;;5091766;28;20036;-72
2022/01/31 05:59:43;;;;;;;9.45;4.88;;;1.80;99.90;;;;;;5090108;28;20056;-72
2022/01/31 06:02:15;;;;;;;14.00;4.57;;;1.80;99.90;;;;;;5090350;28;20101;-73
2022/01/31 06:04:42;;;;;;;8.68;4.30;;;1.80;99.90;;;;;;5090241;28;20040;-73
2022/01/31 06:07:08;;;;;;;8.40;4.60;;;1.90;99.90;;;;;;5089047;28;20074;-73
2022/01/31 06:09:37;;;;;;;10.40;7.15;;;1.90;99.90;;;;;;5089718;28;20118;-73
2022/01/31 06:12:04;;;;;;;12.27;5.43;;;1.90;99.90;;;;;;5104125;28;20040;-73
2022/01/31 06:14:36;;;;;;;7.53;3.95;;;1.90;99.90;;;;;;5090601;28;20051;-73
2022/01/31 06:17:08;;;;;;;10.38;3.65;;;1.90;99.90;;;;;;5091094;28;20516;-73
2022/01/31 06:19:39;;;;;;;8.35;3.75;;;1.90;99.90;;;;;;5106573;28;20112;-73
2022/01/31 06:22:11;;;;;;;8.15;3.58;;;1.90;99.90;;;;;;5090962;28;20032;-73
2022/01/31 06:24:43;;;;;;;10.60;3.38;;;1.90;99.90;;;;;;5105728;28;20040;-72
2022/01/31 06:27:26;;;;;;;7.83;3.50;;;2.00;99.90;;;;;;5089570;28;20048;-73
2022/01/31 06:29:58;;;;;;;10.27;3.90;;;2.00;99.90;;;;;;5089810;28;20104;-73
2022/01/31 06:32:29;;;;;;;9.77;4.00;;;2.00;99.90;;;;;;5089351;28;20127;-73
2022/01/31 06:35:01;;;;;;;13.13;3.38;;;2.10;99.90;;;;;;5090922;28;20040;-73
2022/01/31 06:37:28;;;;;;;9.25;3.03;;;2.10;99.90;;;;;;5106529;28;20215;-72
2022/01/31 06:39:55;;;;;;;9.18;3.70;;;2.10;99.90;;;;;;5090769;28;20046;-73
2022/01/31 06:42:21;;;;;;;7.75;3.00;;;2.20;99.90;;;;;;5090434;28;20123;-72
2022/01/31 06:44:53;;;;;;;6.47;2.85;;;2.20;99.90;;;;;;5089542;28;20513;-73
2022/01/31 06:47:25;;;;;;;8.55;3.35;;;2.20;99.90;;;;;;5092137;28;20050;-73
2022/01/31 06:49:52;;;;;;;9.90;3.88;;;2.20;99.90;;;;;;5110133;28;20047;-73
2022/01/31 06:52:25;;;;;;;11.05;3.60;;;2.30;99.90;;;;;;5094283;28;20122;-73
2022/01/31 06:54:52;;;;;;;8.02;3.50;;;2.30;99.90;;;;;;5093138;28;20044;-73
2022/01/31 06:57:30;;;;;;;10.40;4.20;;;2.30;99.90;;;;;;5076977;28;20048;-73
2022/01/31 07:00:08;;;;;;;10.23;3.10;;;2.30;99.90;;;;;;5094292;28;20069;-73
2022/01/31 07:02:39;;;;;;;5.13;2.53;;;2.40;99.90;;;;;;5092705;28;20036;-72
2022/01/31 07:05:13;;;;;;;11.55;3.88;;;2.40;99.90;;;;;;5093058;28;20044;-73
2022/01/31 07:07:45;;;;;;;6.25;3.35;;;2.40;99.90;;;;;;5109400;28;20046;-73
2022/01/31 07:10:16;;;;;;;8.30;3.08;;;2.40;99.90;;;;;;5092572;28;20135;-73
2022/01/31 07:12:51;;;;;;;7.15;2.85;;;2.40;99.90;;;;;;5093706;28;20043;-72
2022/01/31 07:15:22;;;;;;;7.70;3.55;;;2.40;99.90;;;;;;5109464;28;20044;-73
2022/01/31 07:17:49;;;;;;;5.47;3.10;;;2.50;99.90;;;;;;5110069;28;20071;-73
2022/01/31 07:20:24;;;;;;;6.00;3.42;;;2.50;99.90;;;;;;5094338;28;20410;-72
2022/01/31 07:23:01;;;;;;;7.50;3.78;;;2.60;99.90;;;;;;5094009;28;20046;-73
2022/01/31 07:25:36;;;;;;;7.68;2.72;;;2.60;99.90;;;;;;5094512;28;20047;-73
2022/01/31 07:28:09;;;;;;;7.70;3.13;;;2.60;99.90;;;;;;5092874;28;20058;-72
2022/01/31 07:30:45;;;;;;;8.88;3.38;;;2.60;99.90;;;;;;5094101;28;20417;-73
2022/01/31 07:33:12;;;;;;;6.60;2.40;;;2.70;99.90;;;;;;5110970;28;20048;-73
2022/01/31 07:35:48;;;;;;;6.90;2.97;;;2.70;99.90;;;;;;5094501;28;20036;-73
2022/01/31 07:38:19;;;;;;;13.30;3.00;;;2.70;99.90;;;;;;5094121;28;20039;-73
2022/01/31 07:40:52;;;;;;;8.68;3.67;;;2.70;99.90;;;;;;5093877;28;20040;-73
2022/01/31 07:43:24;;;;;;;8.75;3.15;;;2.70;99.90;;;;;;5093867;28;20058;-73
2022/01/31 07:45:56;;;;;;;7.38;3.30;;;2.70;99.90;;;;;;5092628;28;20126;-73
2022/01/31 07:48:31;;;;;;;8.43;3.28;;;2.60;99.90;;;;;;5092266;28;20040;-74
2022/01/31 07:51:02;;;;;;;7.07;3.38;;;2.60;99.90;;;;;;5091870;28;20406;-73
2022/01/31 07:53:29;;;;;;;7.78;3.03;;;2.60;99.90;;;;;;5092038;28;20048;-73
2022/01/31 07:56:04;;;;;;;9.63;3.20;;;2.50;99.90;;;;;;5108820;28;20040;-74
2022/01/31 07:58:37;;;;;;;7.53;3.80;;;2.50;99.90;;;;;;5107460;28;20040;-73
2022/01/31 08:01:09;;;;;;;8.13;4.38;;;2.50;99.90;;;;;;5092938;28;20044;-73
2022/01/31 08:03:36;;;;;;;10.57;3.90;;;2.50;99.90;;;;;;5108446;28;20044;-72
2022/01/31 08:06:08;;;;;;;6.70;2.97;;;2.50;99.90;;;;;;5089798;28;20035;-73
2022/01/31 08:08:41;;;;;;;7.13;3.60;;;2.50;99.90;;;;;;5062455;28;20530;-73
2022/01/31 08:11:14;;;;;;;11.15;4.25;;;2.60;99.90;;;;;;5089277;28;20036;-73
2022/01/31 08:13:46;;;;;;;10.07;4.07;;;2.60;99.90;;;;;;5092104;28;20062;-72
2022/01/31 08:16:18;;;;;;;6.47;4.00;;;2.70;99.90;;;;;;5092404;28;20050;-73
2022/01/31 08:18:44;;;;;;;7.35;4.00;;;2.70;99.90;;;;;;5073070;28;20483;-73
2022/01/31 08:21:18;;;;;;;6.38;3.20;;;2.70;99.90;;;;;;5090848;28;20047;-73
2022/01/31 08:23:44;;;;;;;7.63;3.90;;;2.70;99.90;;;;;;5073748;28;20517;-73
2022/01/31 08:26:17;;;;;;;8.35;3.90;;;2.70;99.90;;;;;;5073764;28;20058;-73
2022/01/31 08:28:53;;;;;;;9.93;3.88;;;2.70;99.90;;;;;;5087103;28;20111;-73
2022/01/31 08:31:28;;;;;;;8.85;4.28;;;2.70;99.90;;;;;;5054027;28;20135;-73
2022/01/31 08:34:06;;;;;;;7.68;3.72;;;2.70;99.90;;;;;;5053857;28;20395;-74
2022/01/31 08:36:38;;;;;;;7.28;3.67;;;2.60;99.90;;;;;;5053952;28;20534;-73
2022/01/31 08:39:10;;;;;;;12.60;4.10;;;2.60;99.90;;;;;;5053864;28;20055;-74
2022/01/31 08:41:41;;;;;;;10.55;3.90;;;2.60;99.90;;;;;;5070780;28;20384;-74
2022/01/31 08:44:11;;;;;;;7.22;3.88;;;2.60;99.90;;;;;;5036795;28;20576;-73
2022/01/31 08:46:43;;;;;;;6.68;3.97;;;2.60;99.90;;;;;;5071808;28;20055;-73
2022/01/31 08:49:15;;;;;;;8.05;3.95;;;2.60;99.90;;;;;;5071752;28;20515;-73
2022/01/31 08:51:47;;;;;;;8.50;4.53;;;2.50;99.90;;;;;;5071594;28;20495;-73
2022/01/31 08:54:15;;;;;;;8.18;4.03;;;2.50;99.90;;;;;;5053344;28;20044;-73
2022/01/31 08:56:45;;;;;;;10.68;4.05;;;2.50;99.90;;;;;;5053850;28;20040;-73
2022/01/31 08:59:23;;;;;;;7.50;3.85;;;2.50;99.90;;;;;;5071680;28;20143;-73
2022/01/31 09:02:06;;;;;;;8.20;3.45;;;2.50;99.90;;;;;;5037872;28;20044;-73
2022/01/31 09:04:49;;;;;;;6.40;3.75;;;2.50;99.90;;;;;;5053687;28;20047;-73
2022/01/31 09:07:19;;;;;;;7.40;3.70;;;2.50;99.90;;;;;;5071825;28;20075;-73
2022/01/31 09:09:53;;;;;;;5.05;3.33;;;2.50;99.90;;;;;;5073172;28;20044;-73
2022/01/31 09:12:29;;;;;;;5.90;3.45;;;2.50;99.90;;;;;;5090954;28;20130;-73
2022/01/31 09:15:01;;;;;;;4.57;3.05;;;2.50;99.90;;;;;;5091310;28;20052;-74
2022/01/31 09:17:34;;;;;;;11.20;5.20;;;2.50;99.90;;;;;;5090755;28;20425;-73
2022/01/31 09:20:07;;;;;;;6.03;3.20;;;2.50;99.90;;;;;;5074027;28;20036;-73
2022/01/31 09:22:38;;;;;;;6.10;3.70;;;2.50;99.90;;;;;;5090863;28;20048;-73
2022/01/31 09:25:06;;;;;;;5.35;3.03;;;2.60;99.90;;;;;;5070889;28;20652;-73
2022/01/31 09:27:33;;;;;;;6.28;3.63;;;2.50;99.90;;;;;;5068577;28;20139;-74
2022/01/31 09:30:00;;;;;;;6.75;3.63;;;2.50;99.90;;;;;;5087593;28;20522;-74
2022/01/31 09:32:26;;;;;;;7.18;3.17;;;2.50;99.90;;;;;;5089654;28;20058;-73
2022/01/31 09:34:58;;;;;;;3.92;2.70;;;2.50;99.90;;;;;;5088524;28;20142;-73
2022/01/31 09:37:30;;;;;;;4.40;2.97;;;2.50;99.90;;;;;;5089303;28;20406;-74
2022/01/31 09:40:04;;;;;;;3.85;2.75;;;2.40;99.90;;;;;;5091039;28;20044;-73
2022/01/31 09:42:38;;;;;;;4.03;2.60;;;2.40;99.90;;;;;;5090507;28;20036;-73
2022/01/31 09:45:12;;;;;;;;;;;2.40;99.90;;;;;;5073487;28;20098;-73
2022/01/31 09:50:28;;;;;;;4.18;2.60;;;2.30;99.90;;;;;;5090050;28;20043;-74
2022/01/31 09:53:00;;;;;;;5.25;2.47;;;2.30;99.90;;;;;;5071449;28;20044;-74
2022/01/31 09:55:32;;;;;;;4.63;2.38;;;2.40;99.90;;;;;;5088683;28;20051;-73
2022/01/31 09:58:07;;;;;;;3.15;2.35;;;2.60;99.90;;;;;;5072505;28;20036;-74
2022/01/31 10:00:38;;;;;;;3.45;2.38;;;2.70;99.90;;;;;;5090346;28;20044;-73
2022/01/31 10:03:07;;;;;;;2.47;1.90;;;2.90;99.90;;;;;;5071260;28;20058;-73
2022/01/31 10:05:40;;;;;;;;;;;2.90;99.90;;;;;;5071025;28;20385;-73
2022/01/31 10:08:13;;;;;;;3.25;2.15;;;3.00;99.90;;;;;;5090905;28;19920;-73
2022/01/31 10:10:47;;;;;;;3.70;1.80;;;3.10;99.90;;;;;;5090979;28;20048;-73
2022/01/31 10:16:27;;;;;;;;;;;3.00;99.90;;;;;;5091259;28;20144;-73
2022/01/31 10:19:07;;;;;;;3.45;1.40;;;2.80;99.90;;;;;;5072950;28;20317;-73
2022/01/31 10:22:07;;;;;;;1.83;1.67;;;2.60;99.90;;;;;;5089406;28;20074;-73
2022/01/31 10:24:35;;;;;;;3.35;1.73;;;2.50;99.90;;;;;;5094622;28;20042;-73
2022/01/31 10:27:13;;;;;;;3.05;2.00;;;2.60;99.90;;;;;;5076674;28;20050;-73
2022/01/31 10:29:48;;;;;;;1.92;1.73;;;2.70;99.90;;;;;;5093799;28;20052;-73
2022/01/31 10:32:27;;;;;;;3.70;1.88;;;2.70;99.90;;;;;;5076750;28;20036;-73
2022/01/31 10:35:01;;;;;;;2.08;1.73;;;2.70;99.90;;;;;;5094810;28;20046;-73
2022/01/31 10:37:35;;;;;;;2.53;1.75;;;2.80;99.90;;;;;;5077506;28;20036;-73
2022/01/31 10:43:27;;;;;;;2.47;1.80;;;2.70;99.90;;;;;;5094445;28;20047;-73
2022/01/31 10:54:37;;;;;;;1.92;1.15;;;2.90;99.90;;;;;;5075990;28;20044;-74
2022/01/31 10:57:23;;;;;;;1.75;1.30;;;3.00;99.90;;;;;;5076271;28;20050;-73
2022/01/31 11:00:00;;;;;;;2.03;1.25;;;3.20;99.90;;;;;;5077492;28;20044;-73
2022/01/31 11:02:35;;;;;;;2.42;0.90;;;3.40;99.90;;;;;;5094370;28;20046;-74
2022/01/31 11:05:22;;;;;;;0.65;0.65;;;3.50;99.90;;;;;;5094862;28;20044;-73
2022/01/31 11:08:13;;;;;;;1.90;0.75;;;3.60;99.90;;;;;;5091311;28;20047;-73
2022/01/31 11:10:46;;;;;;;1.75;0.60;;;3.60;99.90;;;;;;5093864;28;20050;-73
2022/01/31 11:13:17;;;;;;;2.38;0.60;;;3.50;99.90;;;;;;5092284;28;20044;-73
2022/01/31 11:15:50;;;;;;;1.00;0.90;;;3.40;99.90;;;;;;5093235;28;20050;-73
2022/01/31 11:18:23;;;;;;;2.50;1.58;;;3.30;99.90;;;;;;5093433;28;20076;-73
2022/01/31 11:20:58;;;;;;;1.67;1.10;;;3.30;99.90;;;;;;5058711;28;20048;-73
2022/01/31 11:23:33;;;;;;;1.00;0.60;;;3.20;99.90;;;;;;5072949;28;20530;-72
2022/01/31 11:26:01;;;;;;;1.02;0.60;;;3.20;99.90;;;;;;5055455;28;20518;-73
2022/01/31 11:28:36;;;;;;;3.22;1.80;;;3.20;99.90;;;;;;5053162;28;20051;-73
2022/01/31 11:31:07;;;;;;;2.17;1.88;;;3.20;99.90;;;;;;5073193;28;20044;-73
2022/01/31 11:33:44;;;;;;;1.00;0.90;;;3.30;99.90;;;;;;5053702;28;20053;-73
2022/01/31 11:36:17;;;;;;;2.35;0.90;;;3.30;99.90;;;;;;5055970;28;20047;-73
2022/01/31 11:38:49;;;;;;;;;;;3.30;99.90;;;;;;5073488;28;20492;-73
2022/01/31 11:41:17;;;;;;;1.30;0.80;;;3.30;99.90;;;;;;5073231;28;19920;-73
2022/01/31 11:43:55;;;;;;;;;;;3.30;99.90;;;;;;5086820;28;20143;-72
2022/01/31 11:46:24;;;;;;;6.53;4.22;;;3.40;99.90;;;;;;5091022;28;20009;-73
2022/01/31 11:49:07;;;;;;;1.90;1.45;;;3.40;99.90;;;;;;5090203;28;20510;-73
2022/01/31 11:52:09;;;;;;;1.50;1.10;;;3.50;99.90;;;;;;5075134;28;20540;-72
2022/01/31 11:54:57;;;;;;;2.40;1.33;;;3.50;99.90;;;;;;5008358;28;20052;-73
2022/01/31 11:57:33;;;;;;;2.78;1.50;;;3.50;99.90;;;;;;5093038;28;20050;-72
2022/01/31 12:00:10;;;;;;;1.75;1.30;;;3.60;99.90;;;;;;5075940;28;20487;-73
2022/01/31 12:02:52;;;;;;;2.80;1.60;;;3.60;99.90;;;;;;5075372;28;20055;-73
2022/01/31 12:05:28;;;;;;;2.83;2.00;;;3.70;99.90;;;;;;5074845;28;20123;-73
2022/01/31 12:08:11;;;;;;;3.33;1.42;;;3.80;99.90;;;;;;5091781;28;20138;-73
2022/01/31 12:11:07;;;;;;;3.13;1.10;;;3.70;99.90;;;;;;5092814;28;20048;-72
2022/01/31 12:13:48;;;;;;;2.47;1.05;;;3.70;99.90;;;;;;5074208;28;20713;-73
2022/01/31 12:19:44;;;;;;;3.67;1.30;;;3.70;99.90;;;;;;5069239;28;20062;-73
2022/01/31 12:22:38;;;;;;;3.30;1.33;;;3.70;99.90;;;;;;5091227;28;20052;-72
2022/01/31 12:25:30;;;;;;;2.78;1.60;;;3.70;99.90;;;;;;5091263;28;20131;-73
2022/01/31 12:28:18;;;;;;;3.08;1.25;;;3.70;99.90;;;;;;5090379;28;20040;-73
2022/01/31 12:30:45;;;;;;;3.00;1.30;;;3.80;99.90;;;;;;5088547;28;20589;-73
2022/01/31 12:33:41;;;;;;;3.28;1.58;;;3.80;99.90;;;;;;5091462;28;20052;-73
2022/01/31 12:36:13;;;;;;;2.17;1.17;;;3.90;99.90;;;;;;5091643;28;20051;-73
2022/01/31 12:38:46;;;;;;;2.72;0.80;;;3.90;99.90;;;;;;5090821;28;20040;-72
2022/01/31 12:41:32;;;;;;;3.80;1.20;;;3.90;99.90;;;;;;5074150;28;20044;-73
2022/01/31 12:44:29;;;;;;;2.47;0.95;;;3.90;99.90;;;;;;5091409;28;20117;-72
2022/01/31 12:47:14;;;;;;;3.33;1.05;;;3.90;99.90;;;;;;5090467;28;20036;-73
2022/01/31 12:50:19;;;;;;;2.20;0.98;;;3.90;99.90;;;;;;5090447;28;20075;-73
2022/01/31 12:52:51;;;;;;;2.97;1.08;;;3.80;99.90;;;;;;5088830;28;20032;-73
2022/01/31 12:55:22;;;;;;;3.30;1.40;;;3.80;99.90;;;;;;5070998;28;20079;-73
2022/01/31 12:57:55;;;;;;;;;;;3.70;99.90;;;;;;5072658;28;20066;-73
2022/01/31 13:00:41;;;;;;;1.65;1.00;;;3.80;99.90;;;;;;5072751;28;20289;-73
2022/01/31 13:03:08;;;;;;;2.85;0.95;;;3.80;99.90;;;;;;5071783;28;20106;-73
2022/01/31 13:05:37;;;;;;;4.60;1.00;;;3.80;99.90;;;;;;5073374;28;20131;-73
2022/01/31 13:08:26;;;;;;;4.18;1.00;;;3.80;99.90;;;;;;5073428;28;20048;-73
2022/01/31 13:10:59;;;;;;;4.07;1.10;;;3.90;99.90;;;;;;5090460;28;20105;-73
2022/01/31 13:13:37;;;;;;;2.60;1.10;;;3.90;99.90;;;;;;5090044;28;20054;-73
2022/01/31 13:16:12;;;;;;;4.25;1.20;;;3.80;99.90;;;;;;5073299;28;20140;-73
2022/01/31 13:18:45;;;;;;;2.72;1.15;;;3.70;99.90;;;;;;5073930;28;20047;-73
2022/01/31 13:21:19;;;;;;;2.45;0.85;;;3.70;99.90;;;;;;5090770;28;20040;-73
2022/01/31 13:23:57;;;;;;;2.95;1.05;;;3.70;99.90;;;;;;5090125;28;20402;-72
2022/01/31 13:26:23;;;;;;;6.50;1.23;;;3.80;99.90;;;;;;5090311;28;20519;-73
2022/01/31 13:28:50;;;;;;;1.25;0.73;;;3.80;99.90;;;;;;5090171;28;20074;-73
2022/01/31 13:31:23;;;;;;;2.92;0.80;;;3.80;99.90;;;;;;5090151;28;20066;-72
2022/01/31 13:34:00;;;;;;;1.40;0.70;;;3.80;99.90;;;;;;5091269;28;20044;-73
2022/01/31 13:36:36;;;;;;;4.13;1.15;;;3.80;99.90;;;;;;5091373;28;20036;-72
2022/01/31 13:39:19;;;;;;;0.73;0.55;;;3.80;99.90;;;;;;5090301;28;20157;-72
2022/01/31 13:41:50;;;;;;;1.55;0.80;;;3.80;99.90;;;;;;5086962;28;20036;-73
2022/01/31 13:44:18;;;;;;;1.52;0.60;;;3.80;99.90;;;;;;5089202;28;20325;-72
2022/01/31 13:46:55;;;;;;;1.00;0.70;;;3.90;99.90;;;;;;5092145;28;20552;-72
2022/01/31 13:49:34;;;;;;;1.17;0.50;;;3.80;99.90;;;;;;5089329;28;20036;-72